PWSweather.com
Personal Weather Stations
Station Observations
AC5JC
Greenleaf Peninsula, Waco, Waco, TX 76710

Greenleaf Peninsula, WacoWaco, TX 76710

Lat: 31.565, Lon: -97.198

Elevation: 570

Station Type: Ambient WS-1400IP

http://ac5jc.dyndns.org

High Low Average
Temperature 73.9°F23.3°C 60.8°F16.0°C 67.0°F19.4°C
Dew Point 67.9°F19.9°C 51.4°F10.8°C 59.7°F15.4°C
Winds 7.7 mph 12.4 kmh Calm Calm 2.0 mph NW3.2 kmh NW
Wind Gusts 19.9 mph32.0 kmh -- 4.0 mph6.4 kmh
Humidity 99% 47% 80%
Pressure 29.42 in996.3 mb 29.19 in988.5 mb -
Precipitation 0.01 in0.3 mm - -
Hour Temp Dew Point Humidity Winds Wind Gusts Pressure Precip Precip Rate Daily Precip Total
12:00 AM 67.8°F19.9°C 67.5°F19.7°C 99% Calm Calm 2.5 mph4.0 kmh 29.21 in989.2 mb 0.00 in0.0 mm 0.00 in0.0 mm 0.00 in0.0 mm
12:05 AM 67.8°F19.9°C 67.5°F19.7°C 99% Calm Calm -- 29.21 in989.2 mb 0.00 in0.0 mm 0.00 in0.0 mm 0.00 in0.0 mm
12:10 AM 67.8°F19.9°C 67.5°F19.7°C 99% Calm Calm -- 29.21 in989.2 mb 0.00 in0.0 mm 0.00 in0.0 mm 0.00 in0.0 mm
12:15 AM 67.8°F19.9°C 67.5°F19.7°C 99% Calm Calm -- 29.21 in989.2 mb 0.00 in0.0 mm 0.00 in0.0 mm 0.00 in0.0 mm
12:20 AM 67.8°F19.9°C 67.5°F19.7°C 99% Calm Calm -- 29.20 in988.8 mb 0.00 in0.0 mm 0.00 in0.0 mm 0.00 in0.0 mm
12:25 AM 67.8°F19.9°C 67.5°F19.7°C 99% Calm Calm -- 29.21 in989.2 mb 0.00 in0.0 mm 0.00 in0.0 mm 0.00 in0.0 mm
12:30 AM 67.8°F19.9°C 67.5°F19.7°C 99% Calm Calm -- 29.21 in989.2 mb 0.00 in0.0 mm 0.00 in0.0 mm 0.00 in0.0 mm
12:35 AM 67.8°F19.9°C 67.5°F19.7°C 99% Calm Calm -- 29.21 in989.2 mb 0.00 in0.0 mm 0.00 in0.0 mm 0.00 in0.0 mm
12:40 AM 67.8°F19.9°C 67.5°F19.7°C 99% Calm Calm -- 29.21 in989.2 mb 0.00 in0.0 mm 0.00 in0.0 mm 0.00 in0.0 mm
12:45 AM 67.8°F19.9°C 67.5°F19.7°C 99% Calm Calm -- 29.21 in989.2 mb 0.00 in0.0 mm 0.00 in0.0 mm 0.00 in0.0 mm
12:50 AM 67.8°F19.9°C 67.5°F19.7°C 99% Calm Calm -- 29.21 in989.2 mb 0.00 in0.0 mm 0.00 in0.0 mm 0.00 in0.0 mm
12:55 AM 67.8°F19.9°C 67.6°F19.8°C 99% Calm Calm -- 29.21 in989.2 mb 0.00 in0.0 mm 0.00 in0.0 mm 0.00 in0.0 mm
01:00 AM 68.2°F20.1°C 67.9°F19.9°C 99% Calm Calm -- 29.21 in989.2 mb 0.00 in0.0 mm 0.00 in0.0 mm 0.00 in0.0 mm
01:05 AM 68.2°F20.1°C 67.9°F19.9°C 99% Calm Calm -- 29.21 in989.2 mb 0.00 in0.0 mm 0.00 in0.0 mm 0.00 in0.0 mm
01:10 AM 68.0°F20.0°C 67.7°F19.8°C 99% Calm Calm -- 29.21 in989.2 mb 0.00 in0.0 mm 0.00 in0.0 mm 0.00 in0.0 mm
01:15 AM 68.0°F20.0°C 67.7°F19.8°C 99% Calm Calm -- 29.21 in989.2 mb 0.00 in0.0 mm 0.00 in0.0 mm 0.00 in0.0 mm
01:20 AM 68.2°F20.1°C 67.9°F19.9°C 99% Calm Calm -- 29.21 in989.2 mb 0.00 in0.0 mm 0.00 in0.0 mm 0.00 in0.0 mm
01:25 AM 68.2°F20.1°C 67.9°F19.9°C 99% Calm Calm -- 29.22 in989.5 mb 0.00 in0.0 mm 0.00 in0.0 mm 0.00 in0.0 mm
01:30 AM 68.2°F20.1°C 67.9°F19.9°C 99% 0.2 mph W0.3 kmh W 2.5 mph4.0 kmh 29.22 in989.5 mb 0.00 in0.0 mm 0.00 in0.0 mm 0.00 in0.0 mm
01:35 AM 68.1°F20.1°C 67.8°F19.9°C 99% Calm Calm -- 29.22 in989.5 mb 0.00 in0.0 mm 0.00 in0.0 mm 0.00 in0.0 mm
01:40 AM 68.0°F20.0°C 67.7°F19.8°C 99% Calm Calm -- 29.21 in989.2 mb 0.00 in0.0 mm 0.00 in0.0 mm 0.00 in0.0 mm
01:45 AM 67.8°F19.9°C 67.5°F19.7°C 99% Calm Calm -- 29.22 in989.5 mb 0.00 in0.0 mm 0.00 in0.0 mm 0.00 in0.0 mm
01:50 AM 67.8°F19.9°C 67.5°F19.7°C 99% Calm Calm -- 29.21 in989.2 mb 0.00 in0.0 mm 0.00 in0.0 mm 0.00 in0.0 mm
01:55 AM 67.8°F19.9°C 67.5°F19.7°C 99% 0.4 mph E0.6 kmh E 2.5 mph4.0 kmh 29.22 in989.5 mb 0.00 in0.0 mm 0.00 in0.0 mm 0.00 in0.0 mm
02:00 AM 67.3°F19.6°C 67.0°F19.4°C 99% Calm Calm -- 29.22 in989.5 mb 0.00 in0.0 mm 0.00 in0.0 mm 0.00 in0.0 mm
02:05 AM 67.3°F19.6°C 67.0°F19.4°C 99% Calm Calm -- 29.22 in989.5 mb 0.00 in0.0 mm 0.00 in0.0 mm 0.00 in0.0 mm
02:10 AM 67.1°F19.5°C 66.8°F19.3°C 99% Calm Calm -- 29.22 in989.5 mb 0.00 in0.0 mm 0.00 in0.0 mm 0.00 in0.0 mm
02:15 AM 67.1°F19.5°C 66.8°F19.3°C 99% Calm Calm -- 29.22 in989.5 mb 0.01 in0.3 mm 0.12 in3.0 mm 0.01 in0.3 mm
02:20 AM 67.2°F19.6°C 66.9°F19.4°C 99% Calm Calm -- 29.22 in989.5 mb 0.01 in0.3 mm 0.00 in0.0 mm 0.01 in0.3 mm
02:25 AM 67.3°F19.6°C 67.0°F19.4°C 99% Calm Calm -- 29.22 in989.5 mb 0.01 in0.3 mm 0.00 in0.0 mm 0.01 in0.3 mm
02:30 AM 67.3°F19.6°C 67.0°F19.4°C 99% Calm Calm -- 29.23 in989.8 mb 0.01 in0.3 mm 0.00 in0.0 mm 0.01 in0.3 mm
02:35 AM 67.3°F19.6°C 67.0°F19.4°C 99% Calm Calm -- 29.22 in989.5 mb 0.01 in0.3 mm 0.00 in0.0 mm 0.01 in0.3 mm
02:40 AM 67.5°F19.7°C 67.2°F19.6°C 99% Calm Calm -- 29.22 in989.5 mb 0.01 in0.3 mm 0.00 in0.0 mm 0.01 in0.3 mm
02:45 AM 67.5°F19.7°C 67.2°F19.6°C 99% Calm Calm -- 29.21 in989.2 mb 0.01 in0.3 mm 0.00 in0.0 mm 0.01 in0.3 mm
02:50 AM 67.5°F19.7°C 67.2°F19.6°C 99% Calm Calm -- 29.22 in989.5 mb 0.01 in0.3 mm 0.00 in0.0 mm 0.01 in0.3 mm
02:55 AM 67.5°F19.7°C 67.2°F19.6°C 99% Calm Calm -- 29.22 in989.5 mb 0.01 in0.3 mm 0.00 in0.0 mm 0.01 in0.3 mm
03:00 AM 67.8°F19.9°C 67.5°F19.7°C 99% 0.1 mph WSW0.2 kmh WSW 2.5 mph4.0 kmh 29.22 in989.5 mb 0.01 in0.3 mm 0.00 in0.0 mm 0.01 in0.3 mm
03:05 AM 67.8°F19.9°C 67.5°F19.7°C 99% Calm Calm -- 29.22 in989.5 mb 0.01 in0.3 mm 0.00 in0.0 mm 0.01 in0.3 mm
03:10 AM 67.8°F19.9°C 67.5°F19.7°C 99% Calm Calm -- 29.23 in989.8 mb 0.01 in0.3 mm 0.00 in0.0 mm 0.01 in0.3 mm
03:15 AM 67.7°F19.8°C 67.4°F19.7°C 99% 0.2 mph NW0.3 kmh NW 2.5 mph4.0 kmh 29.22 in989.5 mb 0.00 in0.0 mm 0.00 in0.0 mm 0.01 in0.3 mm
03:20 AM 67.3°F19.6°C 67.1°F19.5°C 99% Calm Calm -- 29.22 in989.5 mb 0.00 in0.0 mm 0.00 in0.0 mm 0.01 in0.3 mm
03:25 AM 67.1°F19.5°C 66.8°F19.3°C 99% 0.1 mph W0.2 kmh W 2.5 mph4.0 kmh 29.22 in989.5 mb 0.00 in0.0 mm 0.00 in0.0 mm 0.01 in0.3 mm
03:30 AM 67.1°F19.5°C 66.8°F19.3°C 99% Calm Calm -- 29.22 in989.5 mb 0.00 in0.0 mm 0.00 in0.0 mm 0.01 in0.3 mm
03:35 AM 67.1°F19.5°C 66.8°F19.3°C 99% Calm Calm -- 29.23 in989.8 mb 0.00 in0.0 mm 0.00 in0.0 mm 0.01 in0.3 mm
03:40 AM 67.2°F19.6°C 66.9°F19.4°C 99% Calm Calm -- 29.23 in989.8 mb 0.00 in0.0 mm 0.00 in0.0 mm 0.01 in0.3 mm
03:45 AM 67.3°F19.6°C 67.0°F19.4°C 99% 1.2 mph NW1.9 kmh NW 7.4 mph11.9 kmh 29.23 in989.8 mb 0.00 in0.0 mm 0.00 in0.0 mm 0.01 in0.3 mm
03:50 AM 67.3°F19.6°C 67.0°F19.4°C 99% 1.1 mph NW1.8 kmh NW 2.5 mph4.0 kmh 29.24 in990.2 mb 0.00 in0.0 mm 0.00 in0.0 mm 0.01 in0.3 mm
03:55 AM 67.3°F19.6°C 67.0°F19.4°C 99% 1.2 mph N1.9 kmh N 4.9 mph7.9 kmh 29.24 in990.2 mb 0.00 in0.0 mm 0.00 in0.0 mm 0.01 in0.3 mm
04:00 AM 67.2°F19.6°C 66.9°F19.4°C 99% 0.8 mph NNW1.3 kmh NNW 2.5 mph4.0 kmh 29.24 in990.2 mb 0.00 in0.0 mm 0.00 in0.0 mm 0.01 in0.3 mm
04:05 AM 66.9°F19.4°C 66.6°F19.2°C 99% 0.3 mph NW0.5 kmh NW 2.5 mph4.0 kmh 29.24 in990.2 mb 0.00 in0.0 mm 0.00 in0.0 mm 0.01 in0.3 mm
04:10 AM 66.9°F19.4°C 66.6°F19.2°C 99% 3.1 mph NW5.0 kmh NW 9.8 mph15.8 kmh 29.24 in990.2 mb 0.00 in0.0 mm 0.00 in0.0 mm 0.01 in0.3 mm
04:15 AM 66.9°F19.4°C 66.6°F19.2°C 99% 1.3 mph NW2.1 kmh NW 2.5 mph4.0 kmh 29.25 in990.5 mb 0.00 in0.0 mm 0.00 in0.0 mm 0.01 in0.3 mm
04:20 AM 66.3°F19.1°C 66.0°F18.9°C 99% 1.0 mph NW1.6 kmh NW 4.9 mph7.9 kmh 29.25 in990.5 mb 0.00 in0.0 mm 0.00 in0.0 mm 0.01 in0.3 mm
04:25 AM 65.8°F18.8°C 65.5°F18.6°C 99% 0.2 mph WNW0.3 kmh WNW 2.5 mph4.0 kmh 29.26 in990.9 mb 0.00 in0.0 mm 0.00 in0.0 mm 0.01 in0.3 mm
04:30 AM 65.8°F18.8°C 65.5°F18.6°C 99% 0.6 mph NW1.0 kmh NW 4.9 mph7.9 kmh 29.26 in990.9 mb 0.00 in0.0 mm 0.00 in0.0 mm 0.01 in0.3 mm
04:35 AM 65.8°F18.8°C 65.5°F18.6°C 99% 0.1 mph WNW0.2 kmh WNW 2.5 mph4.0 kmh 29.26 in990.9 mb 0.00 in0.0 mm 0.00 in0.0 mm 0.01 in0.3 mm
04:40 AM 65.6°F18.7°C 65.3°F18.5°C 99% Calm Calm -- 29.26 in990.9 mb 0.00 in0.0 mm 0.00 in0.0 mm 0.01 in0.3 mm
04:45 AM 65.2°F18.4°C 64.9°F18.3°C 99% 0.3 mph NW0.5 kmh NW 2.5 mph4.0 kmh 29.27 in991.2 mb 0.00 in0.0 mm 0.00 in0.0 mm 0.01 in0.3 mm
04:50 AM 65.1°F18.4°C 64.8°F18.2°C 99% Calm Calm -- 29.26 in990.9 mb 0.00 in0.0 mm 0.00 in0.0 mm 0.01 in0.3 mm
04:55 AM 65.1°F18.4°C 64.8°F18.2°C 99% 0.1 mph N0.2 kmh N 2.5 mph4.0 kmh 29.26 in990.9 mb 0.00 in0.0 mm 0.00 in0.0 mm 0.01 in0.3 mm
05:00 AM 65.0°F18.3°C 64.8°F18.2°C 99% 0.3 mph NNW0.5 kmh NNW 2.5 mph4.0 kmh 29.27 in991.2 mb 0.00 in0.0 mm 0.00 in0.0 mm 0.01 in0.3 mm
05:05 AM 64.9°F18.3°C 64.6°F18.1°C 99% 1.1 mph NW1.8 kmh NW 4.9 mph7.9 kmh 29.27 in991.2 mb 0.00 in0.0 mm 0.00 in0.0 mm 0.01 in0.3 mm
05:10 AM 64.9°F18.3°C 64.7°F18.2°C 99% 1.6 mph W2.6 kmh W 2.5 mph4.0 kmh 29.27 in991.2 mb 0.00 in0.0 mm 0.00 in0.0 mm 0.01 in0.3 mm
05:15 AM 65.1°F18.4°C 64.8°F18.2°C 99% 2.4 mph NW3.9 kmh NW 4.9 mph7.9 kmh 29.27 in991.2 mb 0.00 in0.0 mm 0.00 in0.0 mm 0.01 in0.3 mm
05:20 AM 65.1°F18.4°C 64.8°F18.2°C 99% 1.8 mph NW2.9 kmh NW 7.4 mph11.9 kmh 29.27 in991.2 mb 0.00 in0.0 mm 0.00 in0.0 mm 0.01 in0.3 mm
05:25 AM 65.1°F18.4°C 64.8°F18.2°C 99% 1.5 mph NW2.4 kmh NW 4.9 mph7.9 kmh 29.28 in991.5 mb 0.00 in0.0 mm 0.00 in0.0 mm 0.01 in0.3 mm
05:30 AM 65.1°F18.4°C 64.8°F18.2°C 99% 2.4 mph NW3.9 kmh NW 4.9 mph7.9 kmh 29.28 in991.5 mb 0.00 in0.0 mm 0.00 in0.0 mm 0.01 in0.3 mm
05:35 AM 65.1°F18.4°C 64.8°F18.2°C 99% 0.7 mph WSW1.1 kmh WSW 2.5 mph4.0 kmh 29.29 in991.9 mb 0.00 in0.0 mm 0.00 in0.0 mm 0.01 in0.3 mm
05:40 AM 65.1°F18.4°C 64.8°F18.2°C 99% 0.5 mph N0.8 kmh N 4.9 mph7.9 kmh 29.29 in991.9 mb 0.00 in0.0 mm 0.00 in0.0 mm 0.01 in0.3 mm
05:45 AM 65.5°F18.6°C 65.2°F18.4°C 99% 3.4 mph NNW5.5 kmh NNW 7.4 mph11.9 kmh 29.28 in991.5 mb 0.00 in0.0 mm 0.00 in0.0 mm 0.01 in0.3 mm
05:50 AM 65.5°F18.6°C 65.2°F18.4°C 99% 1.6 mph WNW2.6 kmh WNW 4.9 mph7.9 kmh 29.29 in991.9 mb 0.00 in0.0 mm 0.00 in0.0 mm 0.01 in0.3 mm
05:55 AM 65.5°F18.6°C 65.2°F18.4°C 99% 2.1 mph NW3.4 kmh NW 4.9 mph7.9 kmh 29.29 in991.9 mb 0.00 in0.0 mm 0.00 in0.0 mm 0.01 in0.3 mm
06:00 AM 65.5°F18.6°C 65.2°F18.4°C 99% 2.5 mph NW4.0 kmh NW 4.9 mph7.9 kmh 29.29 in991.9 mb 0.00 in0.0 mm 0.00 in0.0 mm 0.01 in0.3 mm
06:05 AM 65.5°F18.6°C 65.2°F18.4°C 99% 4.4 mph NNW7.1 kmh NNW 7.4 mph11.9 kmh 29.28 in991.5 mb 0.00 in0.0 mm 0.00 in0.0 mm 0.01 in0.3 mm
06:10 AM 65.5°F18.6°C 65.2°F18.4°C 99% 1.5 mph NW2.4 kmh NW 4.9 mph7.9 kmh 29.30 in992.2 mb 0.00 in0.0 mm 0.00 in0.0 mm 0.01 in0.3 mm
06:15 AM 65.5°F18.6°C 65.2°F18.4°C 99% 1.5 mph WNW2.4 kmh WNW 4.9 mph7.9 kmh 29.29 in991.9 mb 0.00 in0.0 mm 0.00 in0.0 mm 0.01 in0.3 mm
06:20 AM 65.5°F18.6°C 65.3°F18.5°C 99% 0.8 mph NW1.3 kmh NW 4.9 mph7.9 kmh 29.30 in992.2 mb 0.00 in0.0 mm 0.00 in0.0 mm 0.01 in0.3 mm
06:25 AM 65.7°F18.7°C 65.4°F18.6°C 99% 3.1 mph NW5.0 kmh NW 4.9 mph7.9 kmh 29.30 in992.2 mb 0.00 in0.0 mm 0.00 in0.0 mm 0.01 in0.3 mm
06:30 AM 65.7°F18.7°C 65.4°F18.6°C 99% 2.5 mph NW4.0 kmh NW 4.9 mph7.9 kmh 29.30 in992.2 mb 0.00 in0.0 mm 0.00 in0.0 mm 0.01 in0.3 mm
06:35 AM 65.7°F18.7°C 65.4°F18.6°C 99% 2.5 mph NW4.0 kmh NW 4.9 mph7.9 kmh 29.30 in992.2 mb 0.00 in0.0 mm 0.00 in0.0 mm 0.01 in0.3 mm
06:40 AM 65.7°F18.7°C 65.4°F18.6°C 99% 3.1 mph WNW5.0 kmh WNW 7.4 mph11.9 kmh 29.30 in992.2 mb 0.00 in0.0 mm 0.00 in0.0 mm 0.01 in0.3 mm
06:45 AM 65.8°F18.8°C 65.5°F18.6°C 99% 4.1 mph NNW6.6 kmh NNW 12.3 mph19.8 kmh 29.31 in992.6 mb 0.00 in0.0 mm 0.00 in0.0 mm 0.01 in0.3 mm
06:50 AM 65.8°F18.8°C 65.5°F18.6°C 99% 4.5 mph NW7.2 kmh NW 9.8 mph15.8 kmh 29.31 in992.6 mb 0.00 in0.0 mm 0.00 in0.0 mm 0.01 in0.3 mm
06:55 AM 65.7°F18.7°C 65.4°F18.6°C 99% 7.1 mph NNW11.4 kmh NNW 15.0 mph24.1 kmh 29.31 in992.6 mb 0.00 in0.0 mm 0.00 in0.0 mm 0.01 in0.3 mm
07:00 AM 65.5°F18.6°C 65.2°F18.4°C 99% 3.2 mph NW5.1 kmh NW 7.4 mph11.9 kmh 29.32 in992.9 mb 0.00 in0.0 mm 0.00 in0.0 mm 0.01 in0.3 mm
07:05 AM 64.4°F18.0°C 64.0°F17.8°C 99% 3.1 mph NNW5.0 kmh NNW 7.4 mph11.9 kmh 29.32 in992.9 mb 0.00 in0.0 mm 0.00 in0.0 mm 0.01 in0.3 mm
07:10 AM 64.4°F18.0°C 63.9°F17.7°C 98% 6.0 mph NW9.7 kmh NW 15.0 mph24.1 kmh 29.32 in992.9 mb 0.00 in0.0 mm 0.00 in0.0 mm 0.01 in0.3 mm
07:15 AM 64.3°F17.9°C 63.4°F17.4°C 97% 7.3 mph NW11.7 kmh NW 19.9 mph32.0 kmh 29.32 in992.9 mb 0.00 in0.0 mm 0.00 in0.0 mm 0.01 in0.3 mm
07:20 AM 64.0°F17.8°C 63.1°F17.3°C 97% 7.7 mph WNW12.4 kmh WNW 12.3 mph19.8 kmh 29.32 in992.9 mb 0.00 in0.0 mm 0.00 in0.0 mm 0.01 in0.3 mm
07:25 AM 62.3°F16.8°C 61.6°F16.4°C 97% 3.6 mph NNW5.8 kmh NNW 9.8 mph15.8 kmh 29.33 in993.2 mb 0.00 in0.0 mm 0.00 in0.0 mm 0.01 in0.3 mm
07:30 AM 62.2°F16.8°C 61.6°F16.4°C 98% 5.3 mph NW8.5 kmh NW 12.3 mph19.8 kmh 29.33 in993.2 mb 0.00 in0.0 mm 0.00 in0.0 mm 0.01 in0.3 mm
07:35 AM 62.2°F16.8°C 61.6°F16.4°C 98% 4.6 mph NW7.4 kmh NW 7.4 mph11.9 kmh 29.33 in993.2 mb 0.00 in0.0 mm 0.00 in0.0 mm 0.01 in0.3 mm
07:40 AM 62.2°F16.8°C 61.6°F16.4°C 98% 7.2 mph NW11.6 kmh NW 12.3 mph19.8 kmh 29.33 in993.2 mb 0.00 in0.0 mm 0.00 in0.0 mm 0.01 in0.3 mm
07:45 AM 61.5°F16.4°C 60.9°F16.1°C 98% 4.6 mph N7.4 kmh N 7.4 mph11.9 kmh 29.34 in993.6 mb 0.00 in0.0 mm 0.00 in0.0 mm 0.01 in0.3 mm
07:50 AM 61.5°F16.4°C 60.9°F16.1°C 98% 5.1 mph N8.2 kmh N 9.8 mph15.8 kmh 29.34 in993.6 mb 0.00 in0.0 mm 0.00 in0.0 mm 0.01 in0.3 mm
07:55 AM 61.5°F16.4°C 60.9°F16.1°C 98% 6.2 mph NW10.0 kmh NW 12.3 mph19.8 kmh 29.35 in993.9 mb 0.00 in0.0 mm 0.00 in0.0 mm 0.01 in0.3 mm
08:00 AM 61.5°F16.4°C 60.9°F16.1°C 98% 3.4 mph NW5.5 kmh NW 7.4 mph11.9 kmh 29.34 in993.6 mb 0.00 in0.0 mm 0.00 in0.0 mm 0.01 in0.3 mm
08:05 AM 61.7°F16.5°C 61.1°F16.2°C 98% 2.5 mph NW4.0 kmh NW 4.9 mph7.9 kmh 29.35 in993.9 mb 0.00 in0.0 mm 0.00 in0.0 mm 0.01 in0.3 mm
08:10 AM 61.8°F16.6°C 61.2°F16.2°C 98% 3.3 mph NW5.3 kmh NW 4.9 mph7.9 kmh 29.35 in993.9 mb 0.00 in0.0 mm 0.00 in0.0 mm 0.01 in0.3 mm
08:15 AM 61.8°F16.6°C 61.3°F16.3°C 98% 6.8 mph NNW10.9 kmh NNW 12.3 mph19.8 kmh 29.35 in993.9 mb 0.00 in0.0 mm 0.00 in0.0 mm 0.01 in0.3 mm
08:20 AM 61.7°F16.5°C 61.1°F16.2°C 98% 5.6 mph NNW9.0 kmh NNW 7.4 mph11.9 kmh 29.36 in994.2 mb 0.00 in0.0 mm 0.00 in0.0 mm 0.01 in0.3 mm
08:25 AM 61.5°F16.4°C 61.0°F16.1°C 98% 4.5 mph NNW7.2 kmh NNW 9.8 mph15.8 kmh 29.36 in994.2 mb 0.00 in0.0 mm 0.00 in0.0 mm 0.01 in0.3 mm
08:30 AM 61.5°F16.4°C 61.0°F16.1°C 98% 5.4 mph NNW8.7 kmh NNW 9.8 mph15.8 kmh 29.36 in994.2 mb 0.00 in0.0 mm 0.00 in0.0 mm 0.01 in0.3 mm
08:35 AM 61.7°F16.5°C 61.1°F16.2°C 98% 3.0 mph NW4.8 kmh NW 7.4 mph11.9 kmh 29.36 in994.2 mb 0.00 in0.0 mm 0.00 in0.0 mm 0.01 in0.3 mm
08:40 AM 61.8°F16.6°C 60.9°F16.1°C 97% 4.7 mph NW7.6 kmh NW 15.0 mph24.1 kmh 29.36 in994.2 mb 0.00 in0.0 mm 0.00 in0.0 mm 0.01 in0.3 mm
08:45 AM 63.3°F17.4°C 62.4°F16.9°C 97% 2.5 mph NW4.0 kmh NW 4.9 mph7.9 kmh 29.36 in994.2 mb 0.00 in0.0 mm 0.00 in0.0 mm 0.01 in0.3 mm
08:50 AM 63.7°F17.6°C 62.8°F17.1°C 97% 4.2 mph NW6.8 kmh NW 7.4 mph11.9 kmh 29.36 in994.2 mb 0.00 in0.0 mm 0.00 in0.0 mm 0.01 in0.3 mm
08:55 AM 63.7°F17.6°C 62.7°F17.1°C 97% 5.1 mph NW8.2 kmh NW 9.8 mph15.8 kmh 29.37 in994.6 mb 0.00 in0.0 mm 0.00 in0.0 mm 0.01 in0.3 mm
09:00 AM 63.8°F17.7°C 62.2°F16.8°C 95% 2.7 mph W4.3 kmh W 7.4 mph11.9 kmh 29.37 in994.6 mb 0.00 in0.0 mm 0.00 in0.0 mm 0.01 in0.3 mm
09:05 AM 64.0°F17.8°C 61.5°F16.4°C 92% 4.5 mph WNW7.2 kmh WNW 7.4 mph11.9 kmh 29.37 in994.6 mb 0.00 in0.0 mm 0.00 in0.0 mm 0.01 in0.3 mm
09:10 AM 63.9°F17.7°C 61.1°F16.2°C 90% 3.4 mph NW5.5 kmh NW 7.4 mph11.9 kmh 29.37 in994.6 mb 0.00 in0.0 mm 0.00 in0.0 mm 0.01 in0.3 mm
09:15 AM 64.0°F17.8°C 59.5°F15.3°C 85% 5.1 mph NNW8.2 kmh NNW 9.8 mph15.8 kmh 29.37 in994.6 mb 0.00 in0.0 mm 0.00 in0.0 mm 0.01 in0.3 mm
09:20 AM 64.0°F17.8°C 58.5°F14.7°C 82% 3.1 mph NW5.0 kmh NW 7.4 mph11.9 kmh 29.37 in994.6 mb 0.00 in0.0 mm 0.00 in0.0 mm 0.01 in0.3 mm
09:25 AM 64.3°F17.9°C 57.8°F14.3°C 79% 4.3 mph NNW6.9 kmh NNW 9.8 mph15.8 kmh 29.38 in994.9 mb 0.00 in0.0 mm 0.00 in0.0 mm 0.01 in0.3 mm
09:30 AM 64.6°F18.1°C 57.4°F14.1°C 77% 5.5 mph NNW8.9 kmh NNW 9.8 mph15.8 kmh 29.37 in994.6 mb 0.00 in0.0 mm 0.00 in0.0 mm 0.01 in0.3 mm
09:35 AM 64.6°F18.1°C 57.1°F13.9°C 77% 3.1 mph NW5.0 kmh NW 9.8 mph15.8 kmh 29.37 in994.6 mb 0.00 in0.0 mm 0.00 in0.0 mm 0.01 in0.3 mm
09:40 AM 64.6°F18.1°C 56.6°F13.7°C 75% 5.9 mph NW9.5 kmh NW 15.0 mph24.1 kmh 29.37 in994.6 mb 0.00 in0.0 mm 0.00 in0.0 mm 0.01 in0.3 mm
09:45 AM 64.8°F18.2°C 56.5°F13.6°C 75% 1.9 mph NNW3.1 kmh NNW 4.9 mph7.9 kmh 29.38 in994.9 mb 0.00 in0.0 mm 0.00 in0.0 mm 0.01 in0.3 mm
09:50 AM 65.0°F18.3°C 56.5°F13.6°C 74% 4.6 mph NW7.4 kmh NW 9.8 mph15.8 kmh 29.37 in994.6 mb 0.00 in0.0 mm 0.00 in0.0 mm 0.01 in0.3 mm
09:55 AM 65.1°F18.4°C 57.0°F13.9°C 75% 3.3 mph NW5.3 kmh NW 9.8 mph15.8 kmh 29.38 in994.9 mb 0.00 in0.0 mm 0.00 in0.0 mm 0.01 in0.3 mm
10:00 AM 65.1°F18.4°C 57.0°F13.9°C 75% 3.9 mph WNW6.3 kmh WNW 7.4 mph11.9 kmh 29.37 in994.6 mb 0.00 in0.0 mm 0.00 in0.0 mm 0.01 in0.3 mm
10:05 AM 64.9°F18.3°C 56.8°F13.8°C 75% 2.3 mph WNW3.7 kmh WNW 9.8 mph15.8 kmh 29.38 in994.9 mb 0.00 in0.0 mm 0.00 in0.0 mm 0.01 in0.3 mm
10:10 AM 64.7°F18.2°C 56.6°F13.7°C 75% 3.8 mph NW6.1 kmh NW 9.8 mph15.8 kmh 29.38 in994.9 mb 0.00 in0.0 mm 0.00 in0.0 mm 0.01 in0.3 mm
10:15 AM 64.8°F18.2°C 56.3°F13.5°C 74% 3.6 mph NW5.8 kmh NW 7.4 mph11.9 kmh 29.39 in995.3 mb 0.00 in0.0 mm 0.00 in0.0 mm 0.01 in0.3 mm
10:20 AM 64.9°F18.3°C 56.1°F13.4°C 73% 5.0 mph WNW8.0 kmh WNW 9.8 mph15.8 kmh 29.39 in995.3 mb 0.00 in0.0 mm 0.00 in0.0 mm 0.01 in0.3 mm
10:25 AM 65.2°F18.4°C 56.3°F13.5°C 73% 2.6 mph N4.2 kmh N 7.4 mph11.9 kmh 29.39 in995.3 mb 0.00 in0.0 mm 0.00 in0.0 mm 0.01 in0.3 mm
10:30 AM 65.7°F18.7°C 56.2°F13.4°C 71% 3.7 mph NNW6.0 kmh NNW 7.4 mph11.9 kmh 29.39 in995.3 mb 0.00 in0.0 mm 0.00 in0.0 mm 0.01 in0.3 mm
10:35 AM 65.7°F18.7°C 55.2°F12.9°C 69% 3.5 mph NW5.6 kmh NW 7.4 mph11.9 kmh 29.39 in995.3 mb 0.00 in0.0 mm 0.00 in0.0 mm 0.01 in0.3 mm
10:40 AM 65.8°F18.8°C 54.6°F12.6°C 67% 2.6 mph NNW4.2 kmh NNW 9.8 mph15.8 kmh 29.39 in995.3 mb 0.00 in0.0 mm 0.00 in0.0 mm 0.01 in0.3 mm
10:45 AM 65.9°F18.8°C 54.4°F12.4°C 66% 3.1 mph NNW5.0 kmh NNW 4.9 mph7.9 kmh 29.39 in995.3 mb 0.00 in0.0 mm 0.00 in0.0 mm 0.01 in0.3 mm
10:50 AM 66.0°F18.9°C 54.6°F12.6°C 67% 4.6 mph N7.4 kmh N 9.8 mph15.8 kmh 29.39 in995.3 mb 0.00 in0.0 mm 0.00 in0.0 mm 0.01 in0.3 mm
10:55 AM 66.0°F18.9°C 54.4°F12.4°C 66% 3.2 mph NW5.1 kmh NW 7.4 mph11.9 kmh 29.39 in995.3 mb 0.00 in0.0 mm 0.00 in0.0 mm 0.01 in0.3 mm
11:00 AM 66.2°F19.0°C 54.0°F12.2°C 65% 2.2 mph NW3.5 kmh NW 7.4 mph11.9 kmh 29.39 in995.3 mb 0.00 in0.0 mm 0.00 in0.0 mm 0.01 in0.3 mm
11:05 AM 66.5°F19.2°C 53.9°F12.2°C 64% 3.4 mph NNW5.5 kmh NNW 4.9 mph7.9 kmh 29.39 in995.3 mb 0.00 in0.0 mm 0.00 in0.0 mm 0.01 in0.3 mm
11:10 AM 67.3°F19.6°C 54.5°F12.5°C 64% 2.3 mph N3.7 kmh N 7.4 mph11.9 kmh 29.38 in994.9 mb 0.00 in0.0 mm 0.00 in0.0 mm 0.01 in0.3 mm
11:15 AM 67.3°F19.6°C 54.5°F12.5°C 64% 4.2 mph NNW6.8 kmh NNW 9.8 mph15.8 kmh 29.39 in995.3 mb 0.00 in0.0 mm 0.00 in0.0 mm 0.01 in0.3 mm
11:20 AM 67.3°F19.6°C 54.4°F12.4°C 63% 3.9 mph WNW6.3 kmh WNW 9.8 mph15.8 kmh 29.39 in995.3 mb 0.00 in0.0 mm 0.00 in0.0 mm 0.01 in0.3 mm
11:25 AM 67.5°F19.7°C 54.4°F12.4°C 63% 2.1 mph NW3.4 kmh NW 7.4 mph11.9 kmh 29.39 in995.3 mb 0.00 in0.0 mm 0.00 in0.0 mm 0.01 in0.3 mm
11:30 AM 68.2°F20.1°C 54.9°F12.7°C 63% 2.0 mph NW3.2 kmh NW 7.4 mph11.9 kmh 29.38 in994.9 mb 0.00 in0.0 mm 0.00 in0.0 mm 0.01 in0.3 mm
11:35 AM 68.2°F20.1°C 54.5°F12.5°C 62% 2.1 mph W3.4 kmh W 7.4 mph11.9 kmh 29.38 in994.9 mb 0.00 in0.0 mm 0.00 in0.0 mm 0.01 in0.3 mm
11:40 AM 68.2°F20.1°C 54.8°F12.7°C 62% 1.3 mph WNW2.1 kmh WNW 7.4 mph11.9 kmh 29.38 in994.9 mb 0.00 in0.0 mm 0.00 in0.0 mm 0.01 in0.3 mm
11:45 AM 68.2°F20.1°C 54.7°F12.6°C 62% 2.4 mph NW3.9 kmh NW 4.9 mph7.9 kmh 29.38 in994.9 mb 0.00 in0.0 mm 0.00 in0.0 mm 0.01 in0.3 mm
11:50 AM 68.3°F20.2°C 54.8°F12.7°C 62% 3.0 mph NW4.8 kmh NW 7.4 mph11.9 kmh 29.37 in994.6 mb 0.00 in0.0 mm 0.00 in0.0 mm 0.01 in0.3 mm
11:55 AM 68.4°F20.2°C 54.7°F12.6°C 62% 2.0 mph NW3.2 kmh NW 4.9 mph7.9 kmh 29.38 in994.9 mb 0.00 in0.0 mm 0.00 in0.0 mm 0.01 in0.3 mm
12:00 PM 68.5°F20.3°C 54.2°F12.3°C 60% 4.8 mph NW7.7 kmh NW 9.8 mph15.8 kmh 29.38 in994.9 mb 0.00 in0.0 mm 0.00 in0.0 mm 0.01 in0.3 mm
12:05 PM 68.5°F20.3°C 54.2°F12.3°C 60% 3.3 mph NW5.3 kmh NW 7.4 mph11.9 kmh 29.39 in995.3 mb 0.00 in0.0 mm 0.00 in0.0 mm 0.01 in0.3 mm
12:10 PM 68.8°F20.4°C 54.5°F12.5°C 60% 3.5 mph NNW5.6 kmh NNW 9.8 mph15.8 kmh 29.37 in994.6 mb 0.00 in0.0 mm 0.00 in0.0 mm 0.01 in0.3 mm
12:15 PM 68.9°F20.5°C 54.5°F12.5°C 60% 3.6 mph W5.8 kmh W 7.4 mph11.9 kmh 29.37 in994.6 mb 0.00 in0.0 mm 0.00 in0.0 mm 0.01 in0.3 mm
12:20 PM 68.9°F20.5°C 54.5°F12.5°C 60% 2.7 mph NW4.3 kmh NW 7.4 mph11.9 kmh 29.38 in994.9 mb 0.00 in0.0 mm 0.00 in0.0 mm 0.01 in0.3 mm
12:25 PM 69.1°F20.6°C 54.7°F12.6°C 60% 2.2 mph W3.5 kmh W 7.4 mph11.9 kmh 29.37 in994.6 mb 0.00 in0.0 mm 0.00 in0.0 mm 0.01 in0.3 mm
12:30 PM 69.9°F21.1°C 54.9°F12.7°C 59% 2.3 mph NW3.7 kmh NW 7.4 mph11.9 kmh 29.37 in994.6 mb 0.00 in0.0 mm 0.00 in0.0 mm 0.01 in0.3 mm
12:35 PM 69.9°F21.1°C 55.3°F12.9°C 60% 3.6 mph WNW5.8 kmh WNW 7.4 mph11.9 kmh 29.37 in994.6 mb 0.00 in0.0 mm 0.00 in0.0 mm 0.01 in0.3 mm
12:40 PM 69.8°F21.0°C 55.2°F12.9°C 60% 1.2 mph NW1.9 kmh NW 4.9 mph7.9 kmh 29.37 in994.6 mb 0.00 in0.0 mm 0.00 in0.0 mm 0.01 in0.3 mm
12:45 PM 70.0°F21.1°C 55.1°F12.8°C 59% 3.0 mph NW4.8 kmh NW 7.4 mph11.9 kmh 29.36 in994.2 mb 0.00 in0.0 mm 0.00 in0.0 mm 0.01 in0.3 mm
12:50 PM 70.2°F21.2°C 55.0°F12.8°C 59% 1.5 mph W2.4 kmh W 7.4 mph11.9 kmh 29.37 in994.6 mb 0.00 in0.0 mm 0.00 in0.0 mm 0.01 in0.3 mm
12:55 PM 70.2°F21.2°C 55.2°F12.9°C 59% 3.4 mph WNW5.5 kmh WNW 7.4 mph11.9 kmh 29.36 in994.2 mb 0.00 in0.0 mm 0.00 in0.0 mm 0.01 in0.3 mm
01:00 PM 70.2°F21.2°C 54.8°F12.7°C 58% 2.3 mph NNW3.7 kmh NNW 4.9 mph7.9 kmh 29.36 in994.2 mb 0.00 in0.0 mm 0.00 in0.0 mm 0.01 in0.3 mm
01:05 PM 70.3°F21.3°C 55.3°F12.9°C 59% 3.1 mph W5.0 kmh W 7.4 mph11.9 kmh 29.35 in993.9 mb 0.00 in0.0 mm 0.00 in0.0 mm 0.01 in0.3 mm
01:20 PM 70.9°F21.6°C 54.3°F12.4°C 56% 2.8 mph WNW4.5 kmh WNW 7.4 mph11.9 kmh 29.36 in994.2 mb 0.00 in0.0 mm 0.00 in0.0 mm 0.01 in0.3 mm
01:25 PM 71.0°F21.7°C 54.0°F12.2°C 55% 1.4 mph NW2.3 kmh NW 7.4 mph11.9 kmh 29.35 in993.9 mb 0.00 in0.0 mm 0.00 in0.0 mm 0.01 in0.3 mm
01:30 PM 71.9°F22.2°C 55.2°F12.9°C 56% 1.9 mph NW3.1 kmh NW 7.4 mph11.9 kmh 29.35 in993.9 mb 0.00 in0.0 mm 0.00 in0.0 mm 0.01 in0.3 mm
01:35 PM 72.0°F22.2°C 54.1°F12.3°C 53% 3.4 mph NNW5.5 kmh NNW 4.9 mph7.9 kmh 29.35 in993.9 mb 0.00 in0.0 mm 0.00 in0.0 mm 0.01 in0.3 mm
01:40 PM 72.0°F22.2°C 53.9°F12.2°C 53% 1.5 mph W2.4 kmh W 4.9 mph7.9 kmh 29.35 in993.9 mb 0.00 in0.0 mm 0.00 in0.0 mm 0.01 in0.3 mm
01:45 PM 72.1°F22.3°C 53.6°F12.0°C 52% 2.8 mph NW4.5 kmh NW 7.4 mph11.9 kmh 29.34 in993.6 mb 0.00 in0.0 mm 0.00 in0.0 mm 0.01 in0.3 mm
01:50 PM 72.1°F22.3°C 53.1°F11.7°C 51% 2.6 mph NW4.2 kmh NW 9.8 mph15.8 kmh 29.34 in993.6 mb 0.00 in0.0 mm 0.00 in0.0 mm 0.01 in0.3 mm
01:55 PM 72.3°F22.4°C 52.6°F11.4°C 50% 3.0 mph NW4.8 kmh NW 7.4 mph11.9 kmh 29.35 in993.9 mb 0.00 in0.0 mm 0.00 in0.0 mm 0.01 in0.3 mm
02:00 PM 72.3°F22.4°C 52.7°F11.5°C 50% 2.6 mph NW4.2 kmh NW 4.9 mph7.9 kmh 29.34 in993.6 mb 0.00 in0.0 mm 0.00 in0.0 mm 0.01 in0.3 mm
02:05 PM 72.5°F22.5°C 53.5°F11.9°C 51% 3.0 mph NW4.8 kmh NW 9.8 mph15.8 kmh 29.34 in993.6 mb 0.00 in0.0 mm 0.00 in0.0 mm 0.01 in0.3 mm
02:10 PM 73.0°F22.8°C 54.1°F12.3°C 52% 2.3 mph NW3.7 kmh NW 7.4 mph11.9 kmh 29.34 in993.6 mb 0.00 in0.0 mm 0.00 in0.0 mm 0.01 in0.3 mm
02:15 PM 73.0°F22.8°C 53.0°F11.7°C 50% 2.2 mph WNW3.5 kmh WNW 7.4 mph11.9 kmh 29.34 in993.6 mb 0.00 in0.0 mm 0.00 in0.0 mm 0.01 in0.3 mm
02:20 PM 73.0°F22.8°C 52.7°F11.5°C 49% 4.6 mph NW7.4 kmh NW 9.8 mph15.8 kmh 29.34 in993.6 mb 0.00 in0.0 mm 0.00 in0.0 mm 0.01 in0.3 mm
02:25 PM 73.0°F22.8°C 52.9°F11.6°C 49% 6.5 mph NNW10.5 kmh NNW 12.3 mph19.8 kmh 29.33 in993.2 mb 0.00 in0.0 mm 0.00 in0.0 mm 0.01 in0.3 mm
02:30 PM 72.6°F22.6°C 53.1°F11.7°C 50% 2.7 mph NW4.3 kmh NW 9.8 mph15.8 kmh 29.34 in993.6 mb 0.00 in0.0 mm 0.00 in0.0 mm 0.01 in0.3 mm
02:35 PM 72.7°F22.6°C 51.6°F10.9°C 47% 3.4 mph NW5.5 kmh NW 4.9 mph7.9 kmh 29.34 in993.6 mb 0.00 in0.0 mm 0.00 in0.0 mm 0.01 in0.3 mm
02:40 PM 72.9°F22.7°C 51.4°F10.8°C 47% 4.4 mph N7.1 kmh N 9.8 mph15.8 kmh 29.34 in993.6 mb 0.00 in0.0 mm 0.00 in0.0 mm 0.01 in0.3 mm
02:45 PM 73.0°F22.8°C 51.7°F10.9°C 47% 3.1 mph NNW5.0 kmh NNW 4.9 mph7.9 kmh 29.34 in993.6 mb 0.00 in0.0 mm 0.00 in0.0 mm 0.01 in0.3 mm
02:50 PM 73.3°F22.9°C 52.5°F11.4°C 48% 4.1 mph NW6.6 kmh NW 7.4 mph11.9 kmh 29.34 in993.6 mb 0.00 in0.0 mm 0.00 in0.0 mm 0.01 in0.3 mm
02:55 PM 73.2°F22.9°C 53.0°F11.7°C 49% 4.8 mph NNW7.7 kmh NNW 9.8 mph15.8 kmh 29.34 in993.6 mb 0.00 in0.0 mm 0.00 in0.0 mm 0.01 in0.3 mm
03:00 PM 73.2°F22.9°C 52.8°F11.6°C 49% 4.5 mph NW7.2 kmh NW 9.8 mph15.8 kmh 29.34 in993.6 mb 0.00 in0.0 mm 0.00 in0.0 mm 0.01 in0.3 mm
03:05 PM 73.2°F22.9°C 52.8°F11.6°C 49% 4.3 mph NW6.9 kmh NW 7.4 mph11.9 kmh 29.34 in993.6 mb 0.00 in0.0 mm 0.00 in0.0 mm 0.01 in0.3 mm
03:10 PM 73.1°F22.8°C 54.6°F12.6°C 52% 4.7 mph WNW7.6 kmh WNW 9.8 mph15.8 kmh 29.34 in993.6 mb 0.00 in0.0 mm 0.00 in0.0 mm 0.01 in0.3 mm
03:15 PM 73.2°F22.9°C 54.6°F12.6°C 52% 4.6 mph NW7.4 kmh NW 9.8 mph15.8 kmh 29.33 in993.2 mb 0.00 in0.0 mm 0.00 in0.0 mm 0.01 in0.3 mm
03:20 PM 73.2°F22.9°C 54.5°F12.5°C 52% 3.4 mph NNW5.5 kmh NNW 7.4 mph11.9 kmh 29.34 in993.6 mb 0.00 in0.0 mm 0.00 in0.0 mm 0.01 in0.3 mm
03:25 PM 73.2°F22.9°C 54.5°F12.5°C 52% 2.8 mph NW4.5 kmh NW 4.9 mph7.9 kmh 29.34 in993.6 mb 0.00 in0.0 mm 0.00 in0.0 mm 0.01 in0.3 mm
03:30 PM 73.4°F23.0°C 54.7°F12.6°C 52% 1.9 mph WNW3.1 kmh WNW 4.9 mph7.9 kmh 29.33 in993.2 mb 0.00 in0.0 mm 0.00 in0.0 mm 0.01 in0.3 mm
03:35 PM 73.4°F23.0°C 55.2°F12.9°C 53% 3.4 mph NW5.5 kmh NW 7.4 mph11.9 kmh 29.34 in993.6 mb 0.00 in0.0 mm 0.00 in0.0 mm 0.01 in0.3 mm
03:40 PM 73.4°F23.0°C 55.6°F13.1°C 54% 3.7 mph NW6.0 kmh NW 9.8 mph15.8 kmh 29.33 in993.2 mb 0.00 in0.0 mm 0.00 in0.0 mm 0.01 in0.3 mm
03:45 PM 73.5°F23.1°C 55.6°F13.1°C 54% 3.3 mph NNW5.3 kmh NNW 7.4 mph11.9 kmh 29.33 in993.2 mb 0.00 in0.0 mm 0.00 in0.0 mm 0.01 in0.3 mm
03:50 PM 73.6°F23.1°C 55.7°F13.2°C 54% 1.1 mph NW1.8 kmh NW 4.9 mph7.9 kmh 29.34 in993.6 mb 0.00 in0.0 mm 0.00 in0.0 mm 0.01 in0.3 mm
03:55 PM 73.6°F23.1°C 55.4°F13.0°C 53% 1.8 mph NNW2.9 kmh NNW 4.9 mph7.9 kmh 29.33 in993.2 mb 0.00 in0.0 mm 0.00 in0.0 mm 0.01 in0.3 mm
04:00 PM 73.6°F23.1°C 55.5°F13.1°C 53% 1.7 mph NNW2.7 kmh NNW 4.9 mph7.9 kmh 29.33 in993.2 mb 0.00 in0.0 mm 0.00 in0.0 mm 0.01 in0.3 mm
04:05 PM 73.6°F23.1°C 56.2°F13.4°C 55% 0.8 mph N1.3 kmh N 4.9 mph7.9 kmh 29.34 in993.6 mb 0.00 in0.0 mm 0.00 in0.0 mm 0.01 in0.3 mm
04:10 PM 73.8°F23.2°C 56.5°F13.6°C 55% 2.4 mph NW3.9 kmh NW 4.9 mph7.9 kmh 29.33 in993.2 mb 0.00 in0.0 mm 0.00 in0.0 mm 0.01 in0.3 mm
04:15 PM 73.9°F23.3°C 56.5°F13.6°C 55% 1.8 mph NW2.9 kmh NW 4.9 mph7.9 kmh 29.33 in993.2 mb 0.00 in0.0 mm 0.00 in0.0 mm 0.01 in0.3 mm
04:20 PM 73.9°F23.3°C 56.1°F13.4°C 54% 1.2 mph WSW1.9 kmh WSW 4.9 mph7.9 kmh 29.33 in993.2 mb 0.00 in0.0 mm 0.00 in0.0 mm 0.01 in0.3 mm
04:25 PM 73.9°F23.3°C 56.2°F13.4°C 54% 3.0 mph N4.8 kmh N 4.9 mph7.9 kmh 29.33 in993.2 mb 0.00 in0.0 mm 0.00 in0.0 mm 0.01 in0.3 mm
04:30 PM 73.7°F23.2°C 56.0°F13.3°C 54% 1.9 mph NW3.1 kmh NW 4.9 mph7.9 kmh 29.33 in993.2 mb 0.00 in0.0 mm 0.00 in0.0 mm 0.01 in0.3 mm
04:35 PM 73.4°F23.0°C 55.7°F13.2°C 54% 1.4 mph NW2.3 kmh NW 4.9 mph7.9 kmh 29.33 in993.2 mb 0.00 in0.0 mm 0.00 in0.0 mm 0.01 in0.3 mm
04:40 PM 73.4°F23.0°C 55.9°F13.3°C 54% 2.5 mph NW4.0 kmh NW 7.4 mph11.9 kmh 29.33 in993.2 mb 0.00 in0.0 mm 0.00 in0.0 mm 0.01 in0.3 mm
04:45 PM 73.4°F23.0°C 55.8°F13.2°C 54% 1.2 mph NW1.9 kmh NW 4.9 mph7.9 kmh 29.33 in993.2 mb 0.00 in0.0 mm 0.00 in0.0 mm 0.01 in0.3 mm
04:50 PM 73.3°F22.9°C 56.1°F13.4°C 55% 1.4 mph NW2.3 kmh NW 4.9 mph7.9 kmh 29.33 in993.2 mb 0.00 in0.0 mm 0.00 in0.0 mm 0.01 in0.3 mm
04:55 PM 73.2°F22.9°C 56.3°F13.5°C 56% 1.4 mph NW2.3 kmh NW 4.9 mph7.9 kmh 29.33 in993.2 mb 0.00 in0.0 mm 0.00 in0.0 mm 0.01 in0.3 mm
05:00 PM 73.2°F22.9°C 56.0°F13.3°C 55% 2.9 mph WNW4.7 kmh WNW 4.9 mph7.9 kmh 29.33 in993.2 mb 0.00 in0.0 mm 0.00 in0.0 mm 0.01 in0.3 mm
05:05 PM 73.2°F22.9°C 55.7°F13.2°C 54% 1.2 mph NW1.9 kmh NW 2.5 mph4.0 kmh 29.33 in993.2 mb 0.00 in0.0 mm 0.00 in0.0 mm 0.01 in0.3 mm
05:10 PM 73.1°F22.8°C 55.7°F13.2°C 54% 0.1 mph NNW0.2 kmh NNW 2.5 mph4.0 kmh 29.33 in993.2 mb 0.00 in0.0 mm 0.00 in0.0 mm 0.01 in0.3 mm
05:15 PM 72.9°F22.7°C 55.5°F13.1°C 54% 0.6 mph NW1.0 kmh NW 2.5 mph4.0 kmh 29.32 in992.9 mb 0.00 in0.0 mm 0.00 in0.0 mm 0.01 in0.3 mm
05:20 PM 72.9°F22.7°C 56.0°F13.3°C 55% 2.4 mph NW3.9 kmh NW 7.4 mph11.9 kmh 29.33 in993.2 mb 0.00 in0.0 mm 0.00 in0.0 mm 0.01 in0.3 mm
05:25 PM 72.9°F22.7°C 56.2°F13.4°C 56% 0.7 mph NW1.1 kmh NW 2.5 mph4.0 kmh 29.33 in993.2 mb 0.00 in0.0 mm 0.00 in0.0 mm 0.01 in0.3 mm
05:30 PM 72.9°F22.7°C 56.2°F13.4°C 56% 0.7 mph NW1.1 kmh NW 2.5 mph4.0 kmh 29.33 in993.2 mb 0.00 in0.0 mm 0.00 in0.0 mm 0.01 in0.3 mm
05:35 PM 72.5°F22.5°C 56.3°F13.5°C 57% 0.2 mph NW0.3 kmh NW 2.5 mph4.0 kmh 29.33 in993.2 mb 0.00 in0.0 mm 0.00 in0.0 mm 0.01 in0.3 mm
05:40 PM 72.5°F22.5°C 56.6°F13.7°C 57% 0.5 mph NW0.8 kmh NW 4.9 mph7.9 kmh 29.33 in993.2 mb 0.00 in0.0 mm 0.00 in0.0 mm 0.01 in0.3 mm
05:45 PM 72.3°F22.4°C 56.7°F13.7°C 58% 0.8 mph NW1.3 kmh NW 2.5 mph4.0 kmh 29.33 in993.2 mb 0.00 in0.0 mm 0.00 in0.0 mm 0.01 in0.3 mm
05:50 PM 72.2°F22.3°C 56.6°F13.7°C 58% 0.8 mph NNW1.3 kmh NNW 2.5 mph4.0 kmh 29.33 in993.2 mb 0.00 in0.0 mm 0.00 in0.0 mm 0.01 in0.3 mm
05:55 PM 72.0°F22.2°C 56.4°F13.6°C 58% 0.6 mph N1.0 kmh N 2.5 mph4.0 kmh 29.33 in993.2 mb 0.00 in0.0 mm 0.00 in0.0 mm 0.01 in0.3 mm
06:00 PM 71.9°F22.2°C 56.9°F13.8°C 59% 0.5 mph NNW0.8 kmh NNW 2.5 mph4.0 kmh 29.33 in993.2 mb 0.00 in0.0 mm 0.00 in0.0 mm 0.01 in0.3 mm
06:05 PM 71.8°F22.1°C 56.8°F13.8°C 59% 0.5 mph NW0.8 kmh NW 2.5 mph4.0 kmh 29.34 in993.6 mb 0.00 in0.0 mm 0.00 in0.0 mm 0.01 in0.3 mm
06:10 PM 71.7°F22.1°C 57.2°F14.0°C 60% 0.1 mph WNW0.2 kmh WNW 2.5 mph4.0 kmh 29.34 in993.6 mb 0.00 in0.0 mm 0.00 in0.0 mm 0.01 in0.3 mm
06:15 PM 70.9°F21.6°C 57.4°F14.1°C 62% Calm Calm -- 29.34 in993.6 mb 0.00 in0.0 mm 0.00 in0.0 mm 0.01 in0.3 mm
06:20 PM 70.9°F21.6°C 58.5°F14.7°C 65% Calm Calm -- 29.34 in993.6 mb 0.00 in0.0 mm 0.00 in0.0 mm 0.01 in0.3 mm
06:25 PM 70.7°F21.5°C 59.1°F15.1°C 67% Calm Calm -- 29.34 in993.6 mb 0.00 in0.0 mm 0.00 in0.0 mm 0.01 in0.3 mm
06:30 PM 70.1°F21.2°C 59.7°F15.4°C 70% Calm Calm -- 29.34 in993.6 mb 0.00 in0.0 mm 0.00 in0.0 mm 0.01 in0.3 mm
06:35 PM 68.7°F20.4°C 58.7°F14.8°C 71% 0.3 mph NW0.5 kmh NW 2.5 mph4.0 kmh 29.34 in993.6 mb 0.00 in0.0 mm 0.00 in0.0 mm 0.01 in0.3 mm
06:40 PM 68.6°F20.3°C 58.2°F14.6°C 70% Calm Calm -- 29.19 in988.5 mb 0.00 in0.0 mm 0.00 in0.0 mm 0.01 in0.3 mm
06:45 PM 68.4°F20.2°C 58.7°F14.8°C 71% Calm Calm -- 29.34 in993.6 mb 0.00 in0.0 mm 0.00 in0.0 mm 0.01 in0.3 mm
06:50 PM 67.9°F19.9°C 58.4°F14.7°C 72% Calm Calm -- 29.34 in993.6 mb 0.00 in0.0 mm 0.00 in0.0 mm 0.01 in0.3 mm
06:55 PM 66.7°F19.3°C 57.7°F14.3°C 73% Calm Calm -- 29.34 in993.6 mb 0.00 in0.0 mm 0.00 in0.0 mm 0.01 in0.3 mm
07:00 PM 66.6°F19.2°C 57.8°F14.3°C 73% Calm Calm -- 29.34 in993.6 mb 0.00 in0.0 mm 0.00 in0.0 mm 0.01 in0.3 mm
07:05 PM 66.6°F19.2°C 58.0°F14.4°C 74% Calm Calm -- 29.35 in993.9 mb 0.00 in0.0 mm 0.00 in0.0 mm 0.01 in0.3 mm
07:10 PM 66.6°F19.2°C 57.8°F14.3°C 73% Calm Calm -- 29.34 in993.6 mb 0.00 in0.0 mm 0.00 in0.0 mm 0.01 in0.3 mm
07:15 PM 66.6°F19.2°C 57.7°F14.3°C 73% Calm Calm -- 29.35 in993.9 mb 0.00 in0.0 mm 0.00 in0.0 mm 0.01 in0.3 mm
07:20 PM 66.5°F19.2°C 57.6°F14.2°C 73% Calm Calm -- 29.36 in994.2 mb 0.00 in0.0 mm 0.00 in0.0 mm 0.01 in0.3 mm
07:25 PM 66.4°F19.1°C 57.6°F14.2°C 73% Calm Calm -- 29.36 in994.2 mb 0.00 in0.0 mm 0.00 in0.0 mm 0.01 in0.3 mm
07:30 PM 66.4°F19.1°C 58.2°F14.6°C 75% Calm Calm -- 29.36 in994.2 mb 0.00 in0.0 mm 0.00 in0.0 mm 0.01 in0.3 mm
07:35 PM 65.1°F18.4°C 57.5°F14.2°C 76% Calm Calm -- 29.36 in994.2 mb 0.00 in0.0 mm 0.00 in0.0 mm 0.01 in0.3 mm
07:40 PM 65.1°F18.4°C 57.7°F14.3°C 77% Calm Calm -- 29.36 in994.2 mb 0.00 in0.0 mm 0.00 in0.0 mm 0.01 in0.3 mm
07:45 PM 65.1°F18.4°C 57.7°F14.3°C 77% Calm Calm -- 29.36 in994.2 mb 0.00 in0.0 mm 0.00 in0.0 mm 0.01 in0.3 mm
07:50 PM 65.1°F18.4°C 58.0°F14.4°C 78% Calm Calm -- 29.36 in994.2 mb 0.00 in0.0 mm 0.00 in0.0 mm 0.01 in0.3 mm
08:05 PM 64.6°F18.1°C 57.6°F14.2°C 78% Calm Calm -- 29.36 in994.2 mb 0.00 in0.0 mm 0.00 in0.0 mm 0.01 in0.3 mm
08:10 PM 64.6°F18.1°C 57.7°F14.3°C 78% Calm Calm -- 29.37 in994.6 mb 0.00 in0.0 mm 0.00 in0.0 mm 0.01 in0.3 mm
08:15 PM 63.9°F17.7°C 57.3°F14.1°C 79% Calm Calm -- 29.37 in994.6 mb 0.00 in0.0 mm 0.00 in0.0 mm 0.01 in0.3 mm
08:20 PM 63.9°F17.7°C 57.3°F14.1°C 79% Calm Calm -- 29.37 in994.6 mb 0.00 in0.0 mm 0.00 in0.0 mm 0.01 in0.3 mm
08:25 PM 63.9°F17.7°C 57.6°F14.2°C 80% Calm Calm -- 29.38 in994.9 mb 0.00 in0.0 mm 0.00 in0.0 mm 0.01 in0.3 mm
08:30 PM 63.6°F17.6°C 57.5°F14.2°C 80% Calm Calm -- 29.38 in994.9 mb 0.00 in0.0 mm 0.00 in0.0 mm 0.01 in0.3 mm
08:35 PM 62.2°F16.8°C 56.6°F13.7°C 82% Calm Calm -- 29.38 in994.9 mb 0.00 in0.0 mm 0.00 in0.0 mm 0.01 in0.3 mm
08:40 PM 62.4°F16.9°C 57.0°F13.9°C 83% Calm Calm -- 29.38 in994.9 mb 0.00 in0.0 mm 0.00 in0.0 mm 0.01 in0.3 mm
08:45 PM 62.4°F16.9°C 57.5°F14.2°C 84% Calm Calm -- 29.38 in994.9 mb 0.00 in0.0 mm 0.00 in0.0 mm 0.01 in0.3 mm
08:50 PM 62.4°F16.9°C 57.4°F14.1°C 84% Calm Calm -- 29.38 in994.9 mb 0.00 in0.0 mm 0.00 in0.0 mm 0.01 in0.3 mm
08:55 PM 62.5°F16.9°C 57.3°F14.1°C 83% Calm Calm -- 29.39 in995.3 mb 0.00 in0.0 mm 0.00 in0.0 mm 0.01 in0.3 mm
09:00 PM 62.4°F16.9°C 57.3°F14.1°C 83% Calm Calm 2.5 mph4.0 kmh 29.38 in994.9 mb 0.00 in0.0 mm 0.00 in0.0 mm 0.01 in0.3 mm
09:05 PM 62.5°F16.9°C 57.1°F13.9°C 83% Calm Calm -- 29.39 in995.3 mb 0.00 in0.0 mm 0.00 in0.0 mm 0.01 in0.3 mm
09:10 PM 62.6°F17.0°C 57.4°F14.1°C 83% Calm Calm -- 29.39 in995.3 mb 0.00 in0.0 mm 0.00 in0.0 mm 0.01 in0.3 mm
09:15 PM 62.6°F17.0°C 57.6°F14.2°C 84% Calm Calm -- 29.39 in995.3 mb 0.00 in0.0 mm 0.00 in0.0 mm 0.01 in0.3 mm
09:20 PM 62.6°F17.0°C 57.2°F14.0°C 82% Calm Calm -- 29.39 in995.3 mb 0.00 in0.0 mm 0.00 in0.0 mm 0.01 in0.3 mm
09:25 PM 62.8°F17.1°C 57.2°F14.0°C 82% Calm Calm -- 29.39 in995.3 mb 0.00 in0.0 mm 0.00 in0.0 mm 0.01 in0.3 mm
09:30 PM 62.8°F17.1°C 57.2°F14.0°C 82% Calm Calm -- 29.40 in995.6 mb 0.00 in0.0 mm 0.00 in0.0 mm 0.01 in0.3 mm
09:35 PM 62.6°F17.0°C 56.9°F13.8°C 82% Calm Calm -- 29.39 in995.3 mb 0.00 in0.0 mm 0.00 in0.0 mm 0.01 in0.3 mm
09:40 PM 62.6°F17.0°C 57.4°F14.1°C 83% Calm Calm -- 29.40 in995.6 mb 0.00 in0.0 mm 0.00 in0.0 mm 0.01 in0.3 mm
09:45 PM 62.5°F16.9°C 57.4°F14.1°C 83% Calm Calm -- 29.40 in995.6 mb 0.00 in0.0 mm 0.00 in0.0 mm 0.01 in0.3 mm
09:50 PM 62.3°F16.8°C 57.7°F14.3°C 85% Calm Calm -- 29.40 in995.6 mb 0.00 in0.0 mm 0.00 in0.0 mm 0.01 in0.3 mm
09:55 PM 61.7°F16.5°C 57.2°F14.0°C 85% Calm Calm -- 29.40 in995.6 mb 0.00 in0.0 mm 0.00 in0.0 mm 0.01 in0.3 mm
10:00 PM 61.2°F16.2°C 57.0°F13.9°C 86% Calm Calm -- 29.40 in995.6 mb 0.00 in0.0 mm 0.00 in0.0 mm 0.01 in0.3 mm
10:05 PM 61.3°F16.3°C 57.3°F14.1°C 87% 0.1 mph NNW0.2 kmh NNW 2.5 mph4.0 kmh 29.41 in995.9 mb 0.00 in0.0 mm 0.00 in0.0 mm 0.01 in0.3 mm
10:10 PM 61.4°F16.3°C 57.0°F13.9°C 86% Calm Calm -- 29.41 in995.9 mb 0.00 in0.0 mm 0.00 in0.0 mm 0.01 in0.3 mm
10:15 PM 62.2°F16.8°C 57.1°F13.9°C 83% Calm Calm -- 29.41 in995.9 mb 0.00 in0.0 mm 0.00 in0.0 mm 0.01 in0.3 mm
10:20 PM 62.6°F17.0°C 57.2°F14.0°C 83% 0.1 mph NE0.2 kmh NE 2.5 mph4.0 kmh 29.41 in995.9 mb 0.00 in0.0 mm 0.00 in0.0 mm 0.01 in0.3 mm
10:25 PM 62.6°F17.0°C 57.1°F13.9°C 82% Calm Calm -- 29.41 in995.9 mb 0.00 in0.0 mm 0.00 in0.0 mm 0.01 in0.3 mm
10:30 PM 62.4°F16.9°C 57.0°F13.9°C 83% Calm Calm -- 29.41 in995.9 mb 0.00 in0.0 mm 0.00 in0.0 mm 0.01 in0.3 mm
10:35 PM 62.1°F16.7°C 56.9°F13.8°C 83% Calm Calm -- 29.41 in995.9 mb 0.00 in0.0 mm 0.00 in0.0 mm 0.01 in0.3 mm
10:40 PM 61.7°F16.5°C 56.7°F13.7°C 84% Calm Calm -- 29.41 in995.9 mb 0.00 in0.0 mm 0.00 in0.0 mm 0.01 in0.3 mm
10:45 PM 61.9°F16.6°C 57.3°F14.1°C 85% Calm Calm -- 29.41 in995.9 mb 0.00 in0.0 mm 0.00 in0.0 mm 0.01 in0.3 mm
10:50 PM 61.8°F16.6°C 57.3°F14.1°C 85% Calm Calm -- 29.42 in996.3 mb 0.00 in0.0 mm 0.00 in0.0 mm 0.01 in0.3 mm
10:55 PM 61.5°F16.4°C 57.0°F13.9°C 85% Calm Calm -- 29.41 in995.9 mb 0.00 in0.0 mm 0.00 in0.0 mm 0.01 in0.3 mm
11:00 PM 61.3°F16.3°C 57.0°F13.9°C 86% Calm Calm -- 29.41 in995.9 mb 0.00 in0.0 mm 0.00 in0.0 mm 0.01 in0.3 mm
11:05 PM 61.3°F16.3°C 57.1°F13.9°C 86% Calm Calm -- 29.41 in995.9 mb 0.00 in0.0 mm 0.00 in0.0 mm 0.01 in0.3 mm
11:10 PM 61.3°F16.3°C 57.4°F14.1°C 87% Calm Calm -- 29.41 in995.9 mb 0.00 in0.0 mm 0.00 in0.0 mm 0.01 in0.3 mm
11:15 PM 61.3°F16.3°C 57.3°F14.1°C 87% 0.1 mph NNE0.2 kmh NNE 2.5 mph4.0 kmh 29.42 in996.3 mb 0.00 in0.0 mm 0.00 in0.0 mm 0.01 in0.3 mm
11:20 PM 61.3°F16.3°C 57.1°F13.9°C 86% Calm Calm 2.5 mph4.0 kmh 29.42 in996.3 mb 0.00 in0.0 mm 0.00 in0.0 mm 0.01 in0.3 mm
11:25 PM 61.3°F16.3°C 57.1°F13.9°C 86% Calm Calm -- 29.42 in996.3 mb 0.00 in0.0 mm 0.00 in0.0 mm 0.01 in0.3 mm
11:30 PM 61.3°F16.3°C 57.0°F13.9°C 86% Calm Calm -- 29.42 in996.3 mb 0.00 in0.0 mm 0.00 in0.0 mm 0.01 in0.3 mm
11:35 PM 61.1°F16.2°C 57.0°F13.9°C 86% Calm Calm -- 29.42 in996.3 mb 0.00 in0.0 mm 0.00 in0.0 mm 0.01 in0.3 mm
11:40 PM 60.8°F16.0°C 56.9°F13.8°C 87% Calm Calm 2.5 mph4.0 kmh 29.42 in996.3 mb 0.00 in0.0 mm 0.00 in0.0 mm 0.01 in0.3 mm
11:45 PM 60.8°F16.0°C 56.8°F13.8°C 87% Calm Calm 2.5 mph4.0 kmh 29.42 in996.3 mb 0.00 in0.0 mm 0.00 in0.0 mm 0.01 in0.3 mm
11:50 PM 60.8°F16.0°C 56.5°F13.6°C 86% 1.2 mph NNE1.9 kmh NNE 2.5 mph4.0 kmh 29.42 in996.3 mb 0.00 in0.0 mm 0.00 in0.0 mm 0.01 in0.3 mm
11:55 PM 60.9°F16.1°C 56.2°F13.4°C 85% Calm Calm -- 29.42 in996.3 mb 0.00 in0.0 mm 0.00 in0.0 mm 0.01 in0.3 mm